sensor_id;sensor_type;location;lat;lon;timestamp;P1;durP1;ratioP1;P2;durP2;ratioP2
16900;SDS011;8567;52.540;6.434;2023-08-06T00:00:32;24.05;;;22.88;;
16900;SDS011;8567;52.540;6.434;2023-08-06T00:02:59;23.20;;;22.10;;
16900;SDS011;8567;52.540;6.434;2023-08-06T00:05:25;23.17;;;22.08;;
16900;SDS011;8567;52.540;6.434;2023-08-06T00:07:52;23.23;;;22.05;;
16900;SDS011;8567;52.540;6.434;2023-08-06T00:10:19;23.02;;;21.92;;
16900;SDS011;8567;52.540;6.434;2023-08-06T00:12:46;23.80;;;22.70;;
16900;SDS011;8567;52.540;6.434;2023-08-06T00:15:15;23.92;;;22.50;;
16900;SDS011;8567;52.540;6.434;2023-08-06T00:17:41;24.50;;;23.30;;
16900;SDS011;8567;52.540;6.434;2023-08-06T00:20:08;25.50;;;24.30;;
16900;SDS011;8567;52.540;6.434;2023-08-06T00:22:36;25.95;;;24.65;;
16900;SDS011;8567;52.540;6.434;2023-08-06T00:25:04;25.00;;;23.80;;
16900;SDS011;8567;52.540;6.434;2023-08-06T00:27:32;25.85;;;24.60;;
16900;SDS011;8567;52.540;6.434;2023-08-06T00:29:58;24.55;;;23.35;;
16900;SDS011;8567;52.540;6.434;2023-08-06T00:32:27;25.23;;;24.02;;
16900;SDS011;8567;52.540;6.434;2023-08-06T00:34:53;25.55;;;24.35;;
16900;SDS011;8567;52.540;6.434;2023-08-06T00:37:20;25.00;;;23.60;;
16900;SDS011;8567;52.540;6.434;2023-08-06T00:39:47;24.95;;;23.75;;
16900;SDS011;8567;52.540;6.434;2023-08-06T00:42:14;25.50;;;24.25;;
16900;SDS011;8567;52.540;6.434;2023-08-06T00:44:45;23.95;;;22.75;;
16900;SDS011;8567;52.540;6.434;2023-08-06T00:47:12;27.13;;;25.83;;
16900;SDS011;8567;52.540;6.434;2023-08-06T00:49:41;25.83;;;24.63;;
16900;SDS011;8567;52.540;6.434;2023-08-06T00:52:08;24.60;;;23.40;;
16900;SDS011;8567;52.540;6.434;2023-08-06T00:54:35;26.80;;;25.50;;
16900;SDS011;8567;52.540;6.434;2023-08-06T00:57:03;28.88;;;27.48;;
16900;SDS011;8567;52.540;6.434;2023-08-06T00:59:31;26.02;;;24.75;;
16900;SDS011;8567;52.540;6.434;2023-08-06T01:01:58;26.05;;;24.80;;
16900;SDS011;8567;52.540;6.434;2023-08-06T01:04:25;27.90;;;26.50;;
16900;SDS011;8567;52.540;6.434;2023-08-06T01:06:55;27.77;;;26.48;;
16900;SDS011;8567;52.540;6.434;2023-08-06T01:09:31;29.27;;;27.88;;
16900;SDS011;8567;52.540;6.434;2023-08-06T01:12:06;28.23;;;26.80;;
16900;SDS011;8567;52.540;6.434;2023-08-06T01:14:44;28.75;;;27.35;;
16900;SDS011;8567;52.540;6.434;2023-08-06T01:17:17;26.95;;;25.65;;
16900;SDS011;8567;52.540;6.434;2023-08-06T01:19:44;27.38;;;26.08;;
16900;SDS011;8567;52.540;6.434;2023-08-06T01:22:12;29.13;;;27.73;;
16900;SDS011;8567;52.540;6.434;2023-08-06T01:24:39;28.30;;;26.92;;
16900;SDS011;8567;52.540;6.434;2023-08-06T01:27:14;29.13;;;27.73;;
16900;SDS011;8567;52.540;6.434;2023-08-06T01:29:53;27.98;;;26.63;;
16900;SDS011;8567;52.540;6.434;2023-08-06T01:32:24;29.52;;;28.10;;
16900;SDS011;8567;52.540;6.434;2023-08-06T01:34:51;28.08;;;26.73;;
16900;SDS011;8567;52.540;6.434;2023-08-06T01:37:21;28.83;;;27.42;;
16900;SDS011;8567;52.540;6.434;2023-08-06T01:39:49;28.80;;;27.40;;
16900;SDS011;8567;52.540;6.434;2023-08-06T01:42:16;29.23;;;27.83;;
16900;SDS011;8567;52.540;6.434;2023-08-06T01:44:43;28.85;;;27.45;;
16900;SDS011;8567;52.540;6.434;2023-08-06T01:47:10;30.45;;;28.95;;
16900;SDS011;8567;52.540;6.434;2023-08-06T01:49:36;28.70;;;27.30;;
16900;SDS011;8567;52.540;6.434;2023-08-06T01:52:04;27.25;;;25.90;;
16900;SDS011;8567;52.540;6.434;2023-08-06T01:54:32;29.65;;;28.25;;
16900;SDS011;8567;52.540;6.434;2023-08-06T01:56:59;29.33;;;27.90;;
16900;SDS011;8567;52.540;6.434;2023-08-06T01:59:26;29.48;;;28.02;;
16900;SDS011;8567;52.540;6.434;2023-08-06T02:01:53;28.20;;;26.90;;
16900;SDS011;8567;52.540;6.434;2023-08-06T02:04:20;28.90;;;27.50;;
16900;SDS011;8567;52.540;6.434;2023-08-06T02:06:47;28.90;;;27.50;;
16900;SDS011;8567;52.540;6.434;2023-08-06T02:09:14;30.23;;;28.73;;
16900;SDS011;8567;52.540;6.434;2023-08-06T02:11:42;27.88;;;26.55;;
16900;SDS011;8567;52.540;6.434;2023-08-06T02:14:08;28.15;;;26.77;;
16900;SDS011;8567;52.540;6.434;2023-08-06T02:16:35;29.73;;;28.33;;
16900;SDS011;8567;52.540;6.434;2023-08-06T02:19:02;29.38;;;27.98;;
16900;SDS011;8567;52.540;6.434;2023-08-06T02:21:29;30.52;;;29.02;;
16900;SDS011;8567;52.540;6.434;2023-08-06T02:23:56;30.98;;;29.48;;
16900;SDS011;8567;52.540;6.434;2023-08-06T02:26:22;29.67;;;28.27;;
16900;SDS011;8567;52.540;6.434;2023-08-06T02:28:51;27.30;;;26.00;;
16900;SDS011;8567;52.540;6.434;2023-08-06T02:31:18;29.75;;;28.30;;
16900;SDS011;8567;52.540;6.434;2023-08-06T02:33:44;31.17;;;29.67;;
16900;SDS011;8567;52.540;6.434;2023-08-06T02:36:11;29.95;;;28.52;;
16900;SDS011;8567;52.540;6.434;2023-08-06T02:38:38;28.48;;;27.08;;
16900;SDS011;8567;52.540;6.434;2023-08-06T02:41:05;28.70;;;27.30;;
16900;SDS011;8567;52.540;6.434;2023-08-06T02:43:32;30.50;;;28.80;;
16900;SDS011;8567;52.540;6.434;2023-08-06T02:46:00;30.42;;;28.92;;
16900;SDS011;8567;52.540;6.434;2023-08-06T02:48:27;28.85;;;27.45;;
16900;SDS011;8567;52.540;6.434;2023-08-06T02:50:56;29.20;;;27.80;;
16900;SDS011;8567;52.540;6.434;2023-08-06T02:53:24;29.00;;;27.60;;
16900;SDS011;8567;52.540;6.434;2023-08-06T02:55:51;31.08;;;29.58;;
16900;SDS011;8567;52.540;6.434;2023-08-06T02:58:18;31.52;;;30.02;;
16900;SDS011;8567;52.540;6.434;2023-08-06T03:00:59;30.40;;;28.90;;
16900;SDS011;8567;52.540;6.434;2023-08-06T03:03:27;30.67;;;29.17;;
16900;SDS011;8567;52.540;6.434;2023-08-06T03:05:55;30.30;;;28.80;;
16900;SDS011;8567;52.540;6.434;2023-08-06T03:08:22;30.70;;;29.20;;
16900;SDS011;8567;52.540;6.434;2023-08-06T03:10:49;30.98;;;29.48;;
16900;SDS011;8567;52.540;6.434;2023-08-06T03:13:16;30.38;;;28.90;;
16900;SDS011;8567;52.540;6.434;2023-08-06T03:15:43;31.67;;;30.17;;
16900;SDS011;8567;52.540;6.434;2023-08-06T03:18:19;31.60;;;30.00;;
16900;SDS011;8567;52.540;6.434;2023-08-06T03:20:46;30.77;;;29.27;;
16900;SDS011;8567;52.540;6.434;2023-08-06T03:23:13;29.75;;;28.27;;
16900;SDS011;8567;52.540;6.434;2023-08-06T03:25:40;32.45;;;30.85;;
16900;SDS011;8567;52.540;6.434;2023-08-06T03:28:06;30.75;;;29.25;;
16900;SDS011;8567;52.540;6.434;2023-08-06T03:30:33;30.30;;;28.80;;
16900;SDS011;8567;52.540;6.434;2023-08-06T03:33:00;31.58;;;30.02;;
16900;SDS011;8567;52.540;6.434;2023-08-06T03:35:28;33.40;;;31.77;;
16900;SDS011;8567;52.540;6.434;2023-08-06T03:37:55;31.77;;;30.25;;
16900;SDS011;8567;52.540;6.434;2023-08-06T03:40:22;32.00;;;30.45;;
16900;SDS011;8567;52.540;6.434;2023-08-06T03:42:49;31.17;;;29.67;;
16900;SDS011;8567;52.540;6.434;2023-08-06T03:45:16;30.35;;;28.85;;
16900;SDS011;8567;52.540;6.434;2023-08-06T03:47:43;30.83;;;29.33;;
16900;SDS011;8567;52.540;6.434;2023-08-06T03:50:10;32.50;;;30.90;;
16900;SDS011;8567;52.540;6.434;2023-08-06T03:52:38;33.30;;;31.70;;
16900;SDS011;8567;52.540;6.434;2023-08-06T03:55:05;32.58;;;30.98;;
16900;SDS011;8567;52.540;6.434;2023-08-06T03:57:32;32.03;;;30.45;;
16900;SDS011;8567;52.540;6.434;2023-08-06T03:59:59;32.55;;;30.98;;
16900;SDS011;8567;52.540;6.434;2023-08-06T04:02:26;31.02;;;29.52;;
16900;SDS011;8567;52.540;6.434;2023-08-06T04:04:53;31.90;;;30.30;;
16900;SDS011;8567;52.540;6.434;2023-08-06T04:07:20;33.90;;;32.20;;
16900;SDS011;8567;52.540;6.434;2023-08-06T04:09:55;33.05;;;31.45;;
16900;SDS011;8567;52.540;6.434;2023-08-06T04:12:23;32.10;;;30.52;;
16900;SDS011;8567;52.540;6.434;2023-08-06T04:14:50;31.23;;;29.70;;
16900;SDS011;8567;52.540;6.434;2023-08-06T04:17:18;32.28;;;30.67;;
16900;SDS011;8567;52.540;6.434;2023-08-06T04:19:47;31.50;;;30.00;;
16900;SDS011;8567;52.540;6.434;2023-08-06T04:22:15;31.60;;;30.08;;
16900;SDS011;8567;52.540;6.434;2023-08-06T04:24:42;31.75;;;30.17;;
16900;SDS011;8567;52.540;6.434;2023-08-06T04:27:11;33.22;;;31.63;;
16900;SDS011;8567;52.540;6.434;2023-08-06T04:29:38;32.88;;;31.27;;
16900;SDS011;8567;52.540;6.434;2023-08-06T04:32:05;31.67;;;30.17;;
16900;SDS011;8567;52.540;6.434;2023-08-06T04:34:33;32.35;;;30.75;;
16900;SDS011;8567;52.540;6.434;2023-08-06T04:37:01;33.50;;;31.90;;
16900;SDS011;8567;52.540;6.434;2023-08-06T04:39:28;32.90;;;31.30;;
16900;SDS011;8567;52.540;6.434;2023-08-06T04:41:55;33.47;;;31.85;;
16900;SDS011;8567;52.540;6.434;2023-08-06T04:44:23;34.10;;;32.40;;
16900;SDS011;8567;52.540;6.434;2023-08-06T04:46:50;32.15;;;30.55;;
16900;SDS011;8567;52.540;6.434;2023-08-06T04:49:18;31.27;;;29.77;;
16900;SDS011;8567;52.540;6.434;2023-08-06T04:51:46;32.22;;;30.65;;
16900;SDS011;8567;52.540;6.434;2023-08-06T04:54:13;32.28;;;30.67;;
16900;SDS011;8567;52.540;6.434;2023-08-06T04:56:39;32.00;;;30.42;;
16900;SDS011;8567;52.540;6.434;2023-08-06T04:59:06;32.08;;;30.50;;
16900;SDS011;8567;52.540;6.434;2023-08-06T05:01:34;32.58;;;30.98;;
16900;SDS011;8567;52.540;6.434;2023-08-06T05:04:01;31.30;;;29.80;;
16900;SDS011;8567;52.540;6.434;2023-08-06T05:06:28;31.85;;;30.27;;
16900;SDS011;8567;52.540;6.434;2023-08-06T05:08:55;31.50;;;29.95;;
16900;SDS011;8567;52.540;6.434;2023-08-06T05:11:22;29.33;;;27.92;;
16900;SDS011;8567;52.540;6.434;2023-08-06T05:13:50;30.88;;;29.38;;
16900;SDS011;8567;52.540;6.434;2023-08-06T05:16:17;31.35;;;29.85;;
16900;SDS011;8567;52.540;6.434;2023-08-06T05:18:45;32.20;;;30.60;;
16900;SDS011;8567;52.540;6.434;2023-08-06T05:21:12;31.92;;;30.38;;
16900;SDS011;8567;52.540;6.434;2023-08-06T05:23:39;31.35;;;29.85;;
16900;SDS011;8567;52.540;6.434;2023-08-06T05:26:05;31.33;;;29.80;;
16900;SDS011;8567;52.540;6.434;2023-08-06T05:28:32;31.80;;;30.27;;
16900;SDS011;8567;52.540;6.434;2023-08-06T05:31:02;31.23;;;29.73;;
16900;SDS011;8567;52.540;6.434;2023-08-06T05:33:29;30.00;;;28.50;;
16900;SDS011;8567;52.540;6.434;2023-08-06T05:35:57;30.13;;;28.65;;
16900;SDS011;8567;52.540;6.434;2023-08-06T05:38:24;31.90;;;30.30;;
16900;SDS011;8567;52.540;6.434;2023-08-06T05:40:51;30.65;;;29.15;;
16900;SDS011;8567;52.540;6.434;2023-08-06T05:43:18;30.65;;;29.15;;
16900;SDS011;8567;52.540;6.434;2023-08-06T05:45:45;30.90;;;29.40;;
16900;SDS011;8567;52.540;6.434;2023-08-06T05:48:12;30.63;;;29.13;;
16900;SDS011;8567;52.540;6.434;2023-08-06T05:50:39;29.85;;;28.42;;
16900;SDS011;8567;52.540;6.434;2023-08-06T05:53:08;30.38;;;28.88;;
16900;SDS011;8567;52.540;6.434;2023-08-06T05:55:34;29.50;;;28.08;;
16900;SDS011;8567;52.540;6.434;2023-08-06T05:58:01;28.92;;;27.52;;
16900;SDS011;8567;52.540;6.434;2023-08-06T06:00:28;29.40;;;28.00;;
16900;SDS011;8567;52.540;6.434;2023-08-06T06:02:55;28.67;;;27.27;;
16900;SDS011;8567;52.540;6.434;2023-08-06T06:05:22;29.48;;;28.05;;
16900;SDS011;8567;52.540;6.434;2023-08-06T06:07:49;29.60;;;28.20;;
16900;SDS011;8567;52.540;6.434;2023-08-06T06:10:17;30.30;;;28.80;;
16900;SDS011;8567;52.540;6.434;2023-08-06T06:12:44;28.10;;;26.77;;
16900;SDS011;8567;52.540;6.434;2023-08-06T06:15:11;28.67;;;27.27;;
16900;SDS011;8567;52.540;6.434;2023-08-06T06:17:37;30.05;;;28.58;;
16900;SDS011;8567;52.540;6.434;2023-08-06T06:20:05;29.20;;;27.80;;
16900;SDS011;8567;52.540;6.434;2023-08-06T06:22:32;29.17;;;27.77;;
16900;SDS011;8567;52.540;6.434;2023-08-06T06:24:59;28.42;;;27.02;;
16900;SDS011;8567;52.540;6.434;2023-08-06T06:27:27;29.15;;;27.75;;
16900;SDS011;8567;52.540;6.434;2023-08-06T06:29:54;28.42;;;27.02;;
16900;SDS011;8567;52.540;6.434;2023-08-06T06:32:21;28.42;;;27.05;;
16900;SDS011;8567;52.540;6.434;2023-08-06T06:34:48;28.77;;;27.38;;
16900;SDS011;8567;52.540;6.434;2023-08-06T06:37:15;28.00;;;26.67;;
16900;SDS011;8567;52.540;6.434;2023-08-06T06:39:42;27.00;;;25.70;;
16900;SDS011;8567;52.540;6.434;2023-08-06T06:42:10;28.40;;;27.00;;
16900;SDS011;8567;52.540;6.434;2023-08-06T06:44:38;28.88;;;27.48;;
16900;SDS011;8567;52.540;6.434;2023-08-06T06:47:05;28.05;;;26.75;;
16900;SDS011;8567;52.540;6.434;2023-08-06T06:49:31;28.33;;;27.00;;
16900;SDS011;8567;52.540;6.434;2023-08-06T06:51:58;26.65;;;25.35;;
16900;SDS011;8567;52.540;6.434;2023-08-06T06:54:25;28.88;;;27.48;;
16900;SDS011;8567;52.540;6.434;2023-08-06T06:56:52;27.55;;;26.25;;
16900;SDS011;8567;52.540;6.434;2023-08-06T06:59:19;29.83;;;28.42;;
16900;SDS011;8567;52.540;6.434;2023-08-06T07:01:47;30.42;;;28.95;;
16900;SDS011;8567;52.540;6.434;2023-08-06T07:04:14;31.50;;;30.00;;
16900;SDS011;8567;52.540;6.434;2023-08-06T07:06:41;29.35;;;27.95;;
16900;SDS011;8567;52.540;6.434;2023-08-06T07:09:08;31.63;;;30.13;;
16900;SDS011;8567;52.540;6.434;2023-08-06T07:11:35;31.05;;;29.48;;
16900;SDS011;8567;52.540;6.434;2023-08-06T07:14:01;31.50;;;30.00;;
16900;SDS011;8567;52.540;6.434;2023-08-06T07:16:29;31.02;;;29.52;;
16900;SDS011;8567;52.540;6.434;2023-08-06T07:18:57;31.67;;;30.13;;
16900;SDS011;8567;52.540;6.434;2023-08-06T07:21:24;34.10;;;32.40;;
16900;SDS011;8567;52.540;6.434;2023-08-06T07:23:51;33.22;;;31.63;;
16900;SDS011;8567;52.540;6.434;2023-08-06T07:26:18;31.73;;;30.20;;
16900;SDS011;8567;52.540;6.434;2023-08-06T07:28:45;32.63;;;31.02;;
16900;SDS011;8567;52.540;6.434;2023-08-06T07:31:12;33.55;;;31.90;;
16900;SDS011;8567;52.540;6.434;2023-08-06T07:33:39;31.45;;;29.95;;
16900;SDS011;8567;52.540;6.434;2023-08-06T07:36:10;32.17;;;30.58;;
16900;SDS011;8567;52.540;6.434;2023-08-06T07:38:38;33.38;;;31.73;;
16900;SDS011;8567;52.540;6.434;2023-08-06T07:41:05;31.88;;;30.33;;
16900;SDS011;8567;52.540;6.434;2023-08-06T07:43:32;33.92;;;32.25;;
16900;SDS011;8567;52.540;6.434;2023-08-06T07:46:00;31.15;;;29.65;;
16900;SDS011;8567;52.540;6.434;2023-08-06T07:48:28;32.67;;;31.08;;
16900;SDS011;8567;52.540;6.434;2023-08-06T07:50:55;31.50;;;29.95;;
16900;SDS011;8567;52.540;6.434;2023-08-06T07:53:24;32.47;;;30.88;;
16900;SDS011;8567;52.540;6.434;2023-08-06T07:55:54;33.55;;;31.90;;
16900;SDS011;8567;52.540;6.434;2023-08-06T07:58:23;33.10;;;31.45;;
16900;SDS011;8567;52.540;6.434;2023-08-06T08:00:50;33.08;;;31.45;;
16900;SDS011;8567;52.540;6.434;2023-08-06T08:03:17;33.15;;;31.52;;
16900;SDS011;8567;52.540;6.434;2023-08-06T08:05:44;31.77;;;30.20;;
16900;SDS011;8567;52.540;6.434;2023-08-06T08:08:11;32.40;;;30.80;;
16900;SDS011;8567;52.540;6.434;2023-08-06T08:10:40;31.58;;;29.98;;
16900;SDS011;8567;52.540;6.434;2023-08-06T08:13:08;32.08;;;30.48;;
16900;SDS011;8567;52.540;6.434;2023-08-06T08:15:35;33.63;;;31.92;;
16900;SDS011;8567;52.540;6.434;2023-08-06T08:18:02;32.63;;;31.02;;
16900;SDS011;8567;52.540;6.434;2023-08-06T08:20:28;33.17;;;31.52;;
16900;SDS011;8567;52.540;6.434;2023-08-06T08:22:57;31.70;;;30.13;;
16900;SDS011;8567;52.540;6.434;2023-08-06T08:25:25;31.08;;;29.55;;
16900;SDS011;8567;52.540;6.434;2023-08-06T08:27:54;31.30;;;29.73;;
16900;SDS011;8567;52.540;6.434;2023-08-06T08:30:21;31.95;;;30.35;;
16900;SDS011;8567;52.540;6.434;2023-08-06T08:32:50;31.50;;;29.95;;
16900;SDS011;8567;52.540;6.434;2023-08-06T08:35:17;31.38;;;29.77;;
16900;SDS011;8567;52.540;6.434;2023-08-06T08:37:43;32.00;;;30.40;;
16900;SDS011;8567;52.540;6.434;2023-08-06T08:40:10;31.02;;;29.48;;
16900;SDS011;8567;52.540;6.434;2023-08-06T08:42:37;31.25;;;29.65;;
16900;SDS011;8567;52.540;6.434;2023-08-06T08:45:06;30.15;;;28.65;;
16900;SDS011;8567;52.540;6.434;2023-08-06T08:47:38;31.38;;;29.77;;
16900;SDS011;8567;52.540;6.434;2023-08-06T08:50:08;32.67;;;31.08;;
16900;SDS011;8567;52.540;6.434;2023-08-06T08:52:36;30.40;;;28.90;;
16900;SDS011;8567;52.540;6.434;2023-08-06T08:55:05;32.30;;;30.70;;
16900;SDS011;8567;52.540;6.434;2023-08-06T08:57:34;33.55;;;31.85;;
16900;SDS011;8567;52.540;6.434;2023-08-06T09:00:01;32.92;;;31.33;;
16900;SDS011;8567;52.540;6.434;2023-08-06T09:02:29;34.30;;;32.60;;
16900;SDS011;8567;52.540;6.434;2023-08-06T09:04:58;32.03;;;30.42;;
16900;SDS011;8567;52.540;6.434;2023-08-06T09:07:27;31.40;;;29.80;;
16900;SDS011;8567;52.540;6.434;2023-08-06T09:09:58;31.70;;;30.10;;
16900;SDS011;8567;52.540;6.434;2023-08-06T09:12:29;33.17;;;31.48;;
16900;SDS011;8567;52.540;6.434;2023-08-06T09:14:56;32.70;;;31.10;;
16900;SDS011;8567;52.540;6.434;2023-08-06T09:17:23;32.50;;;30.90;;
16900;SDS011;8567;52.540;6.434;2023-08-06T09:19:51;33.47;;;31.80;;
16900;SDS011;8567;52.540;6.434;2023-08-06T09:22:18;32.28;;;30.67;;
16900;SDS011;8567;52.540;6.434;2023-08-06T09:24:45;31.67;;;30.00;;
16900;SDS011;8567;52.540;6.434;2023-08-06T09:27:12;33.22;;;31.55;;
16900;SDS011;8567;52.540;6.434;2023-08-06T09:29:40;32.72;;;31.02;;
16900;SDS011;8567;52.540;6.434;2023-08-06T09:32:08;32.08;;;30.38;;
16900;SDS011;8567;52.540;6.434;2023-08-06T09:34:35;30.77;;;28.90;;
16900;SDS011;8567;52.540;6.434;2023-08-06T09:37:08;31.90;;;30.30;;
16900;SDS011;8567;52.540;6.434;2023-08-06T09:39:35;31.38;;;29.77;;
16900;SDS011;8567;52.540;6.434;2023-08-06T09:42:02;31.45;;;29.85;;
16900;SDS011;8567;52.540;6.434;2023-08-06T09:44:30;32.15;;;30.55;;
16900;SDS011;8567;52.540;6.434;2023-08-06T09:46:59;30.80;;;29.05;;
16900;SDS011;8567;52.540;6.434;2023-08-06T09:49:27;30.60;;;29.10;;
16900;SDS011;8567;52.540;6.434;2023-08-06T09:51:54;28.77;;;27.38;;
16900;SDS011;8567;52.540;6.434;2023-08-06T09:54:24;32.58;;;30.98;;
16900;SDS011;8567;52.540;6.434;2023-08-06T09:56:52;32.92;;;31.23;;
16900;SDS011;8567;52.540;6.434;2023-08-06T09:59:20;30.17;;;28.58;;
16900;SDS011;8567;52.540;6.434;2023-08-06T10:01:47;31.95;;;30.35;;
16900;SDS011;8567;52.540;6.434;2023-08-06T10:04:14;32.25;;;30.55;;
16900;SDS011;8567;52.540;6.434;2023-08-06T10:06:43;31.95;;;30.35;;
16900;SDS011;8567;52.540;6.434;2023-08-06T10:09:12;33.30;;;31.60;;
16900;SDS011;8567;52.540;6.434;2023-08-06T10:11:40;32.55;;;30.90;;
16900;SDS011;8567;52.540;6.434;2023-08-06T10:14:13;31.58;;;29.98;;
16900;SDS011;8567;52.540;6.434;2023-08-06T10:16:46;30.42;;;28.83;;
16900;SDS011;8567;52.540;6.434;2023-08-06T10:19:15;31.95;;;30.35;;
16900;SDS011;8567;52.540;6.434;2023-08-06T10:21:46;32.35;;;30.75;;
16900;SDS011;8567;52.540;6.434;2023-08-06T10:24:49;31.67;;;29.88;;
16900;SDS011;8567;52.540;6.434;2023-08-06T10:27:22;32.45;;;30.75;;
16900;SDS011;8567;52.540;6.434;2023-08-06T10:29:54;34.40;;;32.70;;
16900;SDS011;8567;52.540;6.434;2023-08-06T10:32:20;30.95;;;29.40;;
16900;SDS011;8567;52.540;6.434;2023-08-06T10:34:57;32.70;;;31.00;;
16900;SDS011;8567;52.540;6.434;2023-08-06T10:37:34;31.83;;;30.15;;
16900;SDS011;8567;52.540;6.434;2023-08-06T10:40:02;32.67;;;31.05;;
16900;SDS011;8567;52.540;6.434;2023-08-06T10:42:33;31.35;;;29.83;;
16900;SDS011;8567;52.540;6.434;2023-08-06T10:45:13;31.98;;;30.38;;
16900;SDS011;8567;52.540;6.434;2023-08-06T10:47:41;29.52;;;28.02;;
16900;SDS011;8567;52.540;6.434;2023-08-06T10:50:10;28.70;;;27.30;;
16900;SDS011;8567;52.540;6.434;2023-08-06T10:52:37;28.60;;;27.20;;
16900;SDS011;8567;52.540;6.434;2023-08-06T10:55:05;26.67;;;25.38;;
16900;SDS011;8567;52.540;6.434;2023-08-06T10:57:33;25.60;;;24.30;;
16900;SDS011;8567;52.540;6.434;2023-08-06T11:00:00;25.75;;;24.52;;
16900;SDS011;8567;52.540;6.434;2023-08-06T11:02:27;27.63;;;26.20;;
16900;SDS011;8567;52.540;6.434;2023-08-06T11:04:59;26.20;;;24.92;;
16900;SDS011;8567;52.540;6.434;2023-08-06T11:07:31;25.15;;;23.95;;
16900;SDS011;8567;52.540;6.434;2023-08-06T11:10:00;24.98;;;23.77;;
16900;SDS011;8567;52.540;6.434;2023-08-06T11:12:28;23.95;;;22.80;;
16900;SDS011;8567;52.540;6.434;2023-08-06T11:14:57;24.70;;;23.48;;
16900;SDS011;8567;52.540;6.434;2023-08-06T11:17:24;23.83;;;22.65;;
16900;SDS011;8567;52.540;6.434;2023-08-06T11:19:51;22.52;;;21.42;;
16900;SDS011;8567;52.540;6.434;2023-08-06T11:22:18;21.35;;;20.25;;
16900;SDS011;8567;52.540;6.434;2023-08-06T11:24:46;20.33;;;19.33;;
16900;SDS011;8567;52.540;6.434;2023-08-06T11:27:13;22.20;;;21.15;;
16900;SDS011;8567;52.540;6.434;2023-08-06T11:29:40;22.35;;;21.25;;
16900;SDS011;8567;52.540;6.434;2023-08-06T11:32:08;24.80;;;23.60;;
16900;SDS011;8567;52.540;6.434;2023-08-06T11:34:36;25.83;;;24.45;;
16900;SDS011;8567;52.540;6.434;2023-08-06T11:37:03;24.23;;;23.08;;
16900;SDS011;8567;52.540;6.434;2023-08-06T11:39:31;23.50;;;22.38;;
16900;SDS011;8567;52.540;6.434;2023-08-06T11:41:58;23.42;;;22.33;;
16900;SDS011;8567;52.540;6.434;2023-08-06T11:44:29;20.85;;;19.83;;
16900;SDS011;8567;52.540;6.434;2023-08-06T11:46:58;21.13;;;20.13;;
16900;SDS011;8567;52.540;6.434;2023-08-06T11:49:43;21.17;;;20.17;;
16900;SDS011;8567;52.540;6.434;2023-08-06T11:52:15;18.40;;;17.50;;
16900;SDS011;8567;52.540;6.434;2023-08-06T11:54:45;18.65;;;17.75;;
16900;SDS011;8567;52.540;6.434;2023-08-06T11:57:13;19.52;;;18.63;;
16900;SDS011;8567;52.540;6.434;2023-08-06T11:59:41;18.98;;;18.08;;
16900;SDS011;8567;52.540;6.434;2023-08-06T12:02:09;17.65;;;16.85;;
16900;SDS011;8567;52.540;6.434;2023-08-06T12:07:28;15.68;;;14.95;;
16900;SDS011;8567;52.540;6.434;2023-08-06T12:09:56;17.02;;;16.23;;
16900;SDS011;8567;52.540;6.434;2023-08-06T12:12:22;17.92;;;17.05;;
16900;SDS011;8567;52.540;6.434;2023-08-06T12:14:50;17.27;;;16.48;;
16900;SDS011;8567;52.540;6.434;2023-08-06T12:17:17;18.55;;;17.58;;
16900;SDS011;8567;52.540;6.434;2023-08-06T12:19:44;18.75;;;17.75;;
16900;SDS011;8567;52.540;6.434;2023-08-06T12:22:13;17.02;;;16.23;;
16900;SDS011;8567;52.540;6.434;2023-08-06T12:24:41;14.85;;;14.15;;
16900;SDS011;8567;52.540;6.434;2023-08-06T12:27:08;14.48;;;13.77;;
16900;SDS011;8567;52.540;6.434;2023-08-06T12:29:35;13.65;;;13.05;;
16900;SDS011;8567;52.540;6.434;2023-08-06T12:32:03;13.10;;;12.43;;
16900;SDS011;8567;52.540;6.434;2023-08-06T12:34:30;13.05;;;12.43;;
16900;SDS011;8567;52.540;6.434;2023-08-06T12:36:57;13.15;;;12.55;;
16900;SDS011;8567;52.540;6.434;2023-08-06T12:39:25;11.43;;;10.93;;
16900;SDS011;8567;52.540;6.434;2023-08-06T12:41:54;11.90;;;11.32;;
16900;SDS011;8567;52.540;6.434;2023-08-06T12:44:22;12.20;;;11.60;;
16900;SDS011;8567;52.540;6.434;2023-08-06T12:46:49;11.80;;;11.27;;
16900;SDS011;8567;52.540;6.434;2023-08-06T12:49:16;10.80;;;10.30;;
16900;SDS011;8567;52.540;6.434;2023-08-06T12:51:43;10.68;;;10.18;;
16900;SDS011;8567;52.540;6.434;2023-08-06T12:54:10;10.75;;;10.25;;
16900;SDS011;8567;52.540;6.434;2023-08-06T12:56:38;11.10;;;10.50;;
16900;SDS011;8567;52.540;6.434;2023-08-06T12:59:05;12.57;;;11.98;;
16900;SDS011;8567;52.540;6.434;2023-08-06T13:01:32;12.15;;;11.57;;
16900;SDS011;8567;52.540;6.434;2023-08-06T13:03:59;12.77;;;12.07;;
16900;SDS011;8567;52.540;6.434;2023-08-06T13:06:26;12.82;;;12.02;;
16900;SDS011;8567;52.540;6.434;2023-08-06T13:08:53;12.90;;;12.30;;
16900;SDS011;8567;52.540;6.434;2023-08-06T13:11:20;11.77;;;11.23;;
16900;SDS011;8567;52.540;6.434;2023-08-06T13:13:49;12.15;;;11.55;;
16900;SDS011;8567;52.540;6.434;2023-08-06T13:16:15;11.63;;;10.93;;
16900;SDS011;8567;52.540;6.434;2023-08-06T13:18:42;11.57;;;11.02;;
16900;SDS011;8567;52.540;6.434;2023-08-06T13:21:09;11.82;;;11.23;;
16900;SDS011;8567;52.540;6.434;2023-08-06T13:23:36;11.90;;;11.30;;
16900;SDS011;8567;52.540;6.434;2023-08-06T13:26:03;11.57;;;11.05;;
16900;SDS011;8567;52.540;6.434;2023-08-06T13:28:29;12.00;;;11.45;;
16900;SDS011;8567;52.540;6.434;2023-08-06T13:30:57;12.07;;;11.48;;
16900;SDS011;8567;52.540;6.434;2023-08-06T13:33:24;11.40;;;10.90;;
16900;SDS011;8567;52.540;6.434;2023-08-06T13:35:52;11.80;;;11.10;;
16900;SDS011;8567;52.540;6.434;2023-08-06T13:38:19;11.63;;;11.10;;
16900;SDS011;8567;52.540;6.434;2023-08-06T13:40:46;12.32;;;11.73;;
16900;SDS011;8567;52.540;6.434;2023-08-06T13:43:13;20.17;;;19.02;;
16900;SDS011;8567;52.540;6.434;2023-08-06T13:45:42;12.85;;;12.25;;
16900;SDS011;8567;52.540;6.434;2023-08-06T13:48:10;14.88;;;14.18;;
16900;SDS011;8567;52.540;6.434;2023-08-06T13:50:37;17.05;;;16.17;;
16900;SDS011;8567;52.540;6.434;2023-08-06T13:53:04;19.05;;;18.10;;
16900;SDS011;8567;52.540;6.434;2023-08-06T13:55:30;19.98;;;19.02;;
16900;SDS011;8567;52.540;6.434;2023-08-06T13:57:57;23.48;;;22.27;;
16900;SDS011;8567;52.540;6.434;2023-08-06T14:00:24;22.15;;;21.08;;
16900;SDS011;8567;52.540;6.434;2023-08-06T14:02:51;21.58;;;20.48;;
16900;SDS011;8567;52.540;6.434;2023-08-06T14:05:20;19.58;;;18.65;;
16900;SDS011;8567;52.540;6.434;2023-08-06T14:07:46;19.73;;;18.80;;
16900;SDS011;8567;52.540;6.434;2023-08-06T14:10:13;19.80;;;18.80;;
16900;SDS011;8567;52.540;6.434;2023-08-06T14:12:40;20.27;;;19.23;;
16900;SDS011;8567;52.540;6.434;2023-08-06T14:15:07;21.42;;;20.42;;
16900;SDS011;8567;52.540;6.434;2023-08-06T14:17:35;19.17;;;18.10;;
16900;SDS011;8567;52.540;6.434;2023-08-06T14:20:02;17.63;;;16.83;;
16900;SDS011;8567;52.540;6.434;2023-08-06T14:22:30;16.73;;;15.88;;
16900;SDS011;8567;52.540;6.434;2023-08-06T14:24:57;15.68;;;14.85;;
16900;SDS011;8567;52.540;6.434;2023-08-06T14:27:24;15.75;;;14.95;;
16900;SDS011;8567;52.540;6.434;2023-08-06T14:29:51;14.93;;;14.23;;
16900;SDS011;8567;52.540;6.434;2023-08-06T14:32:18;14.77;;;14.07;;
16900;SDS011;8567;52.540;6.434;2023-08-06T14:34:46;14.50;;;13.80;;
16900;SDS011;8567;52.540;6.434;2023-08-06T14:37:13;14.73;;;14.02;;
16900;SDS011;8567;52.540;6.434;2023-08-06T14:39:41;14.13;;;13.43;;